createdAt,value
2022-08-17T00:00:05.997Z,17.37
2022-08-17T00:00:55.634Z,17.37
2022-08-17T00:01:51.452Z,17.44
2022-08-17T00:03:15.402Z,17.42
2022-08-17T00:04:09.292Z,17.43
2022-08-17T00:04:58.654Z,17.42
2022-08-17T00:05:49.067Z,17.44
2022-08-17T00:06:37.014Z,17.39
2022-08-17T00:07:23.866Z,17.29
2022-08-17T00:08:12.328Z,17.26
2022-08-17T00:09:01.199Z,17.31
2022-08-17T00:09:48.084Z,17.37
2022-08-17T00:10:35.535Z,17.29
2022-08-17T00:11:29.295Z,17.28
2022-08-17T00:12:43.070Z,17.22
2022-08-17T00:13:30.355Z,17.22
2022-08-17T00:14:19.052Z,17.27
2022-08-17T00:15:10.359Z,17.20
2022-08-17T00:16:00.716Z,17.18
2022-08-17T00:16:56.759Z,17.24
2022-08-17T00:17:47.956Z,17.26
2022-08-17T00:19:01.196Z,17.23
2022-08-17T00:19:42.310Z,17.19
2022-08-17T00:20:30.401Z,17.11
2022-08-17T00:21:23.743Z,17.07
2022-08-17T00:22:31.938Z,17.13
2022-08-17T00:23:18.996Z,17.15
2022-08-17T00:24:05.978Z,17.18
2022-08-17T00:24:52.960Z,17.11
2022-08-17T00:25:45.867Z,17.11
2022-08-17T00:26:35.836Z,17.11
2022-08-17T00:27:31.689Z,17.14
2022-08-17T00:28:19.241Z,17.05
2022-08-17T00:29:08.846Z,17.02
2022-08-17T00:29:55.724Z,16.99
2022-08-17T00:30:53.149Z,17.01
2022-08-17T00:31:40.489Z,17.00
2022-08-17T00:33:15.648Z,17.02
2022-08-17T00:33:35.126Z,17.00
2022-08-17T00:34:22.150Z,17.07
2022-08-17T00:35:11.899Z,17.04
2022-08-17T00:35:59.826Z,17.02
2022-08-17T00:36:46.649Z,17.03
2022-08-17T00:37:33.455Z,17.00
2022-08-17T00:38:20.379Z,17.03
2022-08-17T00:39:07.185Z,17.01
2022-08-17T00:39:54.239Z,16.98
2022-08-17T00:41:04.560Z,16.93
2022-08-17T00:41:51.405Z,16.88
2022-08-17T00:42:39.083Z,16.96
2022-08-17T00:43:32.527Z,16.92
2022-08-17T00:44:19.795Z,16.89
2022-08-17T00:45:09.431Z,16.91
2022-08-17T00:45:57.235Z,16.88
2022-08-17T00:46:44.801Z,16.83
2022-08-17T00:47:31.739Z,16.85
2022-08-17T00:48:29.547Z,16.85
2022-08-17T00:49:19.787Z,16.85
2022-08-17T00:50:10.170Z,16.84
2022-08-17T00:51:16.622Z,16.83
2022-08-17T00:52:11.911Z,16.85
2022-08-17T00:52:59.155Z,16.84
2022-08-17T00:53:51.675Z,16.91
2022-08-17T00:54:41.816Z,16.92
2022-08-17T00:55:29.348Z,16.92
2022-08-17T00:56:23.043Z,16.91
2022-08-17T00:57:23.714Z,16.88
2022-08-17T00:58:10.329Z,16.87
2022-08-17T00:58:57.473Z,16.87
2022-08-17T00:59:55.978Z,16.90
2022-08-17T01:00:50.180Z,16.89
2022-08-17T01:01:37.897Z,16.89
2022-08-17T01:02:25.074Z,16.96
2022-08-17T01:03:14.555Z,16.98
2022-08-17T01:04:02.202Z,16.98
2022-08-17T01:04:51.477Z,16.98
2022-08-17T01:05:42.543Z,16.93
2022-08-17T01:06:30.034Z,16.94
2022-08-17T01:07:17.799Z,16.91
2022-08-17T01:08:07.045Z,16.94
2022-08-17T01:08:57.506Z,16.94
2022-08-17T01:09:44.857Z,16.93
2022-08-17T01:10:58.555Z,16.88
2022-08-17T01:11:48.537Z,16.86
2022-08-17T01:12:37.144Z,16.81
2022-08-17T01:13:25.521Z,16.78
2022-08-17T01:14:12.547Z,16.82
2022-08-17T01:14:59.435Z,16.81
2022-08-17T01:15:54.273Z,16.80
2022-08-17T01:16:41.114Z,16.74
2022-08-17T01:17:28.714Z,16.76
2022-08-17T01:18:16.835Z,16.77
2022-08-17T01:19:11.056Z,16.77
2022-08-17T01:19:58.064Z,16.77
2022-08-17T01:20:48.892Z,16.77
2022-08-17T01:21:51.646Z,16.74
2022-08-17T01:22:38.470Z,16.75
2022-08-17T01:23:26.365Z,16.74
2022-08-17T01:24:13.371Z,16.68
2022-08-17T01:25:02.461Z,16.71
2022-08-17T01:25:54.891Z,16.69
2022-08-17T01:26:44.970Z,16.72
2022-08-17T01:27:31.902Z,16.72
2022-08-17T01:28:53.009Z,16.71
2022-08-17T01:29:30.960Z,16.69
2022-08-17T01:30:56.881Z,16.69
2022-08-17T01:31:29.198Z,16.61
2022-08-17T01:32:16.590Z,16.61
2022-08-17T01:33:04.433Z,16.64
2022-08-17T01:33:51.364Z,16.62
2022-08-17T01:34:43.486Z,16.59
2022-08-17T01:35:36.960Z,16.58
2022-08-17T01:36:23.764Z,16.54
2022-08-17T01:37:12.309Z,16.58
2022-08-17T01:37:59.122Z,16.60
2022-08-17T01:38:45.961Z,16.64
2022-08-17T01:39:49.137Z,16.59
2022-08-17T01:40:39.352Z,16.56
2022-08-17T01:41:26.308Z,16.54
2022-08-17T01:42:21.867Z,16.52
2022-08-17T01:43:12.707Z,16.53
2022-08-17T01:44:02.845Z,16.56
2022-08-17T01:44:53.907Z,16.57
2022-08-17T01:45:43.636Z,16.52
2022-08-17T01:46:33.633Z,16.52
2022-08-17T01:47:20.513Z,16.54
2022-08-17T01:48:07.397Z,16.51
2022-08-17T01:48:56.507Z,16.52
2022-08-17T01:49:43.484Z,16.50
2022-08-17T01:50:35.097Z,16.48
2022-08-17T01:51:22.047Z,16.50
2022-08-17T01:52:10.755Z,16.51
2022-08-17T01:53:02.309Z,16.48
2022-08-17T01:53:52.536Z,16.43
2022-08-17T01:54:40.647Z,16.44
2022-08-17T01:55:33.209Z,16.47
2022-08-17T01:56:23.238Z,16.45
2022-08-17T01:57:10.916Z,16.42
2022-08-17T01:57:58.173Z,16.38
2022-08-17T01:58:46.445Z,16.39
2022-08-17T01:59:33.991Z,16.36
2022-08-17T02:00:21.217Z,16.37
2022-08-17T02:01:08.743Z,16.38
2022-08-17T02:01:55.790Z,16.38
2022-08-17T02:02:46.163Z,16.34
2022-08-17T02:03:34.756Z,16.29
2022-08-17T02:04:21.589Z,16.35
2022-08-17T02:05:08.876Z,16.27
2022-08-17T02:05:55.927Z,16.31
2022-08-17T02:06:53.299Z,16.33
2022-08-17T02:08:00.463Z,16.36
2022-08-17T02:09:02.824Z,16.28
2022-08-17T02:09:52.733Z,16.35
2022-08-17T02:10:39.738Z,16.29
2022-08-17T02:11:37.965Z,16.27
2022-08-17T02:12:37.205Z,16.28
2022-08-17T02:13:28.323Z,16.26
2022-08-17T02:14:15.281Z,16.35
2022-08-17T02:15:02.347Z,16.30
2022-08-17T02:15:49.233Z,16.31
2022-08-17T02:16:38.713Z,16.27
2022-08-17T02:17:25.475Z,16.23
2022-08-17T02:18:12.395Z,16.24
2022-08-17T02:18:59.954Z,16.24
2022-08-17T02:19:46.754Z,16.24
2022-08-17T02:20:41.823Z,16.25
2022-08-17T02:21:29.606Z,16.22
2022-08-17T02:22:18.417Z,16.22
2022-08-17T02:23:09.014Z,16.16
2022-08-17T02:23:56.400Z,16.18
2022-08-17T02:25:00.490Z,16.13
2022-08-17T02:25:49.030Z,16.16
2022-08-17T02:26:35.904Z,16.12
2022-08-17T02:27:22.786Z,16.12
2022-08-17T02:28:10.715Z,16.11
2022-08-17T02:28:57.492Z,16.08
2022-08-17T02:29:44.477Z,16.07
2022-08-17T02:31:00.363Z,15.96
2022-08-17T02:31:38.574Z,16.04
2022-08-17T02:32:27.984Z,16.08
2022-08-17T02:33:16.058Z,16.05
2022-08-17T02:34:04.944Z,16.01
2022-08-17T02:34:52.686Z,16.01
2022-08-17T02:35:39.800Z,16.05
2022-08-17T02:36:27.537Z,16.02
2022-08-17T02:37:17.452Z,16.04
2022-08-17T02:38:06.274Z,15.94
2022-08-17T02:38:53.044Z,15.95
2022-08-17T02:39:40.031Z,15.95
2022-08-17T02:40:28.601Z,15.98
2022-08-17T02:41:23.358Z,16.02
2022-08-17T02:42:10.238Z,16.02
2022-08-17T02:42:57.296Z,16.01
2022-08-17T02:43:46.508Z,15.98
2022-08-17T02:44:39.405Z,15.95
2022-08-17T02:45:27.415Z,15.93
2022-08-17T02:46:14.304Z,15.88
2022-08-17T02:47:01.433Z,15.91
2022-08-17T02:47:48.355Z,15.96
2022-08-17T02:48:35.190Z,15.95
2022-08-17T02:49:22.114Z,15.98
2022-08-17T02:50:10.570Z,15.93
2022-08-17T02:50:57.455Z,15.86
2022-08-17T02:51:44.286Z,15.81
2022-08-17T02:52:44.018Z,15.81
2022-08-17T02:53:35.650Z,15.81
2022-08-17T02:54:40.415Z,15.80
2022-08-17T02:55:32.906Z,15.86
2022-08-17T02:56:19.792Z,15.87
2022-08-17T02:57:06.575Z,15.89
2022-08-17T02:57:53.904Z,15.87
2022-08-17T02:58:40.798Z,15.88
2022-08-17T02:59:27.990Z,15.88
2022-08-17T03:00:25.318Z,15.85
2022-08-17T03:01:13.007Z,15.83
2022-08-17T03:01:59.925Z,15.84
2022-08-17T03:02:47.365Z,15.84
2022-08-17T03:03:35.363Z,15.79
2022-08-17T03:04:22.476Z,15.82
2022-08-17T03:05:11.376Z,15.79
2022-08-17T03:05:58.257Z,15.76
2022-08-17T03:06:45.147Z,15.75
2022-08-17T03:07:32.029Z,15.76
2022-08-17T03:08:19.898Z,15.73
2022-08-17T03:09:06.756Z,15.69
2022-08-17T03:09:54.174Z,15.70
2022-08-17T03:10:41.585Z,15.68
2022-08-17T03:11:28.381Z,15.71
2022-08-17T03:12:15.557Z,15.73
2022-08-17T03:13:02.488Z,15.65
2022-08-17T03:13:49.868Z,15.62
2022-08-17T03:14:42.146Z,15.57
2022-08-17T03:15:32.213Z,15.60
2022-08-17T03:16:19.015Z,15.60
2022-08-17T03:17:05.923Z,15.59
2022-08-17T03:17:54.049Z,15.55
2022-08-17T03:18:40.858Z,15.57
2022-08-17T03:19:28.069Z,15.56
2022-08-17T03:20:16.409Z,15.48
2022-08-17T03:21:04.664Z,15.51
2022-08-17T03:21:54.844Z,15.54
2022-08-17T03:22:48.050Z,15.54
2022-08-17T03:23:42.316Z,15.50
2022-08-17T03:24:29.433Z,15.56
2022-08-17T03:25:19.664Z,15.61
2022-08-17T03:26:12.331Z,15.60
2022-08-17T03:27:02.515Z,15.56
2022-08-17T03:27:49.626Z,15.60
2022-08-17T03:28:39.071Z,15.52
2022-08-17T03:29:25.867Z,15.48
2022-08-17T03:30:15.626Z,15.48
2022-08-17T03:31:03.183Z,15.48
2022-08-17T03:31:50.129Z,15.47
2022-08-17T03:32:46.637Z,15.44
2022-08-17T03:33:34.040Z,15.43
2022-08-17T03:34:21.056Z,15.37
2022-08-17T03:35:08.946Z,15.38
2022-08-17T03:35:56.153Z,15.29
2022-08-17T03:36:42.994Z,15.30
2022-08-17T03:37:29.798Z,15.37
2022-08-17T03:38:17.580Z,15.41
2022-08-17T03:39:05.057Z,15.47
2022-08-17T03:39:52.081Z,15.45
2022-08-17T03:40:57.338Z,15.41
2022-08-17T03:41:46.109Z,15.39
2022-08-17T03:42:33.028Z,15.37
2022-08-17T03:43:21.797Z,15.30
2022-08-17T03:44:08.684Z,15.32
2022-08-17T03:44:57.778Z,15.35
2022-08-17T03:46:03.166Z,15.39
2022-08-17T03:47:09.213Z,15.37
2022-08-17T03:48:14.681Z,15.41
2022-08-17T03:49:20.351Z,15.35
2022-08-17T03:50:40.588Z,15.42
2022-08-17T03:51:46.167Z,15.45
2022-08-17T03:52:51.889Z,15.38
2022-08-17T03:54:09.867Z,15.33
2022-08-17T03:55:15.635Z,15.37
2022-08-17T03:56:23.454Z,15.36
2022-08-17T03:57:11.477Z,15.40
2022-08-17T03:57:58.307Z,15.39
2022-08-17T03:58:45.690Z,15.46
2022-08-17T03:59:32.997Z,15.45
2022-08-17T04:00:19.974Z,15.45
2022-08-17T04:01:07.394Z,15.49
2022-08-17T04:01:56.157Z,15.46
2022-08-17T04:02:43.230Z,15.47
2022-08-17T04:03:30.107Z,15.51
2022-08-17T04:04:17.265Z,15.54
2022-08-17T04:05:04.366Z,15.61
2022-08-17T04:05:51.164Z,15.64
2022-08-17T04:06:38.298Z,15.64
2022-08-17T04:07:27.801Z,15.66
2022-08-17T04:08:14.549Z,15.61
2022-08-17T04:09:01.438Z,15.61
2022-08-17T04:09:48.427Z,15.62
2022-08-17T04:10:41.340Z,15.66
2022-08-17T04:11:32.914Z,15.64
2022-08-17T04:12:21.949Z,15.63
2022-08-17T04:13:10.195Z,15.67
2022-08-17T04:13:57.289Z,15.66
2022-08-17T04:14:52.776Z,15.66
2022-08-17T04:15:40.809Z,15.71
2022-08-17T04:16:27.636Z,15.79
2022-08-17T04:17:15.070Z,15.75
2022-08-17T04:18:02.402Z,15.73
2022-08-17T04:18:49.315Z,15.70
2022-08-17T04:19:36.218Z,15.75
2022-08-17T04:20:25.208Z,15.73
2022-08-17T04:21:11.986Z,15.67
2022-08-17T04:21:58.758Z,15.73
2022-08-17T04:23:05.043Z,15.76
2022-08-17T04:23:52.484Z,15.86
2022-08-17T04:24:39.317Z,15.91
2022-08-17T04:25:27.565Z,15.96
2022-08-17T04:26:52.475Z,15.97
2022-08-17T04:27:21.854Z,15.99
2022-08-17T04:28:09.452Z,16.03
2022-08-17T04:29:03.337Z,16.06
2022-08-17T04:29:55.591Z,16.03
2022-08-17T04:30:45.370Z,16.07
2022-08-17T04:31:33.451Z,16.12
2022-08-17T04:32:58.528Z,16.14
2022-08-17T04:33:28.654Z,16.11
2022-08-17T04:34:19.717Z,16.10
2022-08-17T04:35:07.129Z,16.15
2022-08-17T04:35:56.942Z,16.25
2022-08-17T04:36:47.999Z,16.29
2022-08-17T04:37:37.296Z,16.38
2022-08-17T04:38:29.490Z,16.41
2022-08-17T04:39:16.240Z,16.50
2022-08-17T04:40:22.655Z,16.63
2022-08-17T04:41:33.367Z,16.70
2022-08-17T04:42:20.275Z,16.77
2022-08-17T04:43:12.995Z,16.94
2022-08-17T04:44:01.010Z,17.02
2022-08-17T04:44:48.060Z,17.12
2022-08-17T04:45:55.058Z,17.30
2022-08-17T04:46:42.861Z,17.51
2022-08-17T04:47:29.735Z,17.47
2022-08-17T04:48:16.759Z,17.54
2022-08-17T04:49:09.498Z,17.60
2022-08-17T04:49:56.250Z,17.69
2022-08-17T04:50:45.671Z,17.73
2022-08-17T04:51:35.944Z,17.78
2022-08-17T04:52:32.263Z,17.80
2022-08-17T04:53:29.649Z,17.84
2022-08-17T04:54:22.069Z,17.90
2022-08-17T04:55:09.192Z,17.95
2022-08-17T04:55:58.508Z,18.05
2022-08-17T04:56:45.803Z,18.10
2022-08-17T04:57:37.678Z,18.14
2022-08-17T04:58:27.758Z,18.25
2022-08-17T04:59:17.930Z,18.33
2022-08-17T05:00:05.973Z,18.42
2022-08-17T05:00:52.978Z,18.49
2022-08-17T05:01:41.256Z,18.54
2022-08-17T05:02:28.200Z,18.60
2022-08-17T05:03:15.103Z,18.60
2022-08-17T05:04:32.165Z,18.68
2022-08-17T05:05:12.829Z,18.80
2022-08-17T05:05:59.811Z,18.84
2022-08-17T05:06:47.241Z,18.87
2022-08-17T05:07:34.137Z,18.86
2022-08-17T05:08:21.869Z,18.97
2022-08-17T05:09:08.750Z,19.03
2022-08-17T05:09:55.478Z,19.11
2022-08-17T05:10:45.175Z,19.16
2022-08-17T05:11:32.435Z,19.22
2022-08-17T05:12:19.228Z,19.32
2022-08-17T05:13:09.343Z,19.40
2022-08-17T05:13:57.081Z,19.44
2022-08-17T05:14:43.833Z,19.54
2022-08-17T05:15:33.217Z,19.75
2022-08-17T05:16:24.187Z,19.90
2022-08-17T05:17:11.145Z,20.11
2022-08-17T05:17:58.205Z,20.27
2022-08-17T05:18:45.159Z,20.39
2022-08-17T05:19:32.143Z,20.40
2022-08-17T05:20:18.866Z,20.44
2022-08-17T05:21:06.972Z,20.54
2022-08-17T05:21:54.037Z,20.67
2022-08-17T05:22:52.108Z,20.75
2022-08-17T05:23:43.124Z,20.72
2022-08-17T05:24:42.728Z,20.66
2022-08-17T05:25:46.776Z,20.73
2022-08-17T05:26:36.450Z,20.92
2022-08-17T05:27:24.626Z,21.31
2022-08-17T05:28:18.035Z,21.50
2022-08-17T05:29:05.441Z,21.55
2022-08-17T05:29:52.384Z,21.67
2022-08-17T05:30:40.316Z,21.91
2022-08-17T05:31:28.322Z,22.06
2022-08-17T05:32:47.896Z,22.05
2022-08-17T05:33:25.089Z,22.05
2022-08-17T05:34:11.876Z,22.09
2022-08-17T05:35:00.521Z,22.04
2022-08-17T05:35:49.441Z,22.06
2022-08-17T05:36:44.060Z,22.19
2022-08-17T05:37:31.283Z,22.19
2022-08-17T05:38:20.289Z,22.09
2022-08-17T05:39:07.084Z,22.03
2022-08-17T05:39:54.366Z,21.98
2022-08-17T05:40:42.568Z,22.01
2022-08-17T05:41:29.371Z,21.95
2022-08-17T05:42:19.557Z,21.92
2022-08-17T05:43:09.530Z,21.94
2022-08-17T05:43:56.755Z,21.89
2022-08-17T05:44:43.732Z,21.87
2022-08-17T05:45:39.866Z,21.91
2022-08-17T05:46:40.647Z,21.94
2022-08-17T05:47:27.897Z,21.99
2022-08-17T05:48:15.661Z,22.00
2022-08-17T05:49:05.788Z,22.03
2022-08-17T05:49:53.961Z,22.01
2022-08-17T05:50:56.763Z,22.04
2022-08-17T05:52:10.919Z,22.07
2022-08-17T05:53:13.949Z,22.15
2022-08-17T05:54:13.808Z,22.16
2022-08-17T05:55:45.340Z,22.31
2022-08-17T05:57:07.777Z,22.39
2022-08-17T05:58:06.005Z,22.48
2022-08-17T05:59:08.809Z,22.52
2022-08-17T06:00:13.926Z,22.66
2022-08-17T06:01:12.883Z,22.82
2022-08-17T06:02:12.158Z,22.97
2022-08-17T06:03:17.154Z,23.10
2022-08-17T06:04:35.132Z,23.21
2022-08-17T06:05:34.109Z,23.31
2022-08-17T06:06:31.128Z,23.43
2022-08-17T06:07:34.676Z,23.47
2022-08-17T06:08:48.834Z,23.46
2022-08-17T06:09:58.173Z,23.51
2022-08-17T06:11:14.172Z,23.58
2022-08-17T06:12:19.067Z,23.65
2022-08-17T06:13:19.161Z,23.68
2022-08-17T06:14:17.388Z,23.70
2022-08-17T06:15:25.117Z,23.75
2022-08-17T06:16:33.359Z,23.79
2022-08-17T06:17:22.810Z,23.84
2022-08-17T06:18:12.836Z,23.88
2022-08-17T06:19:12.295Z,23.95
2022-08-17T06:20:26.329Z,24.08
2022-08-17T06:21:16.116Z,24.29
2022-08-17T06:22:05.883Z,24.29
2022-08-17T06:22:58.457Z,24.27
2022-08-17T06:23:54.910Z,24.31
2022-08-17T06:24:57.134Z,24.25
2022-08-17T06:25:49.904Z,24.28
2022-08-17T06:26:43.158Z,24.36
2022-08-17T06:27:37.235Z,24.35
2022-08-17T06:28:34.810Z,24.37
2022-08-17T06:29:30.766Z,24.41
2022-08-17T06:30:26.989Z,24.45
2022-08-17T06:31:29.634Z,24.48
2022-08-17T06:32:17.373Z,24.62
2022-08-17T06:33:07.933Z,24.74
2022-08-17T06:33:56.995Z,24.73
2022-08-17T06:34:44.286Z,24.84
2022-08-17T06:35:46.323Z,24.98
2022-08-17T06:36:48.766Z,25.17
2022-08-17T06:37:49.750Z,25.45
2022-08-17T06:38:50.299Z,25.54
2022-08-17T06:39:46.014Z,25.63
2022-08-17T06:40:35.884Z,25.64
2022-08-17T06:41:28.995Z,25.50
2022-08-17T06:43:02.090Z,25.47
2022-08-17T06:44:49.812Z,25.54
2022-08-17T06:45:31.421Z,25.66
2022-08-17T06:46:21.493Z,25.53
2022-08-17T06:47:28.949Z,25.41
2022-08-17T06:48:25.364Z,25.43
2022-08-17T06:49:19.958Z,25.39
2022-08-17T06:50:19.188Z,25.38
2022-08-17T06:51:23.169Z,25.29
2022-08-17T06:52:12.848Z,25.33
2022-08-17T06:53:53.876Z,25.37
2022-08-17T06:54:45.886Z,25.43
2022-08-17T06:55:55.827Z,25.47
2022-08-17T06:56:55.268Z,25.49
2022-08-17T06:57:47.967Z,25.53
2022-08-17T06:58:36.107Z,25.55
2022-08-17T06:59:36.379Z,25.59
2022-08-17T07:00:43.225Z,25.60
2022-08-17T07:01:33.216Z,25.67
2022-08-17T07:02:53.064Z,25.63
2022-08-17T07:04:12.264Z,25.59
2022-08-17T07:05:01.980Z,25.75
2022-08-17T07:05:52.303Z,25.81
2022-08-17T07:07:00.661Z,25.91
2022-08-17T07:08:02.881Z,25.97
2022-08-17T07:08:59.318Z,26.04
2022-08-17T07:09:47.153Z,26.13
2022-08-17T07:10:41.856Z,26.22
2022-08-17T07:11:39.281Z,26.23
2022-08-17T07:12:29.754Z,26.30
2022-08-17T07:13:20.071Z,26.37
2022-08-17T07:14:30.916Z,26.40
2022-08-17T07:15:25.453Z,26.47
2022-08-17T07:16:38.944Z,26.48
2022-08-17T07:17:46.692Z,26.58
2022-08-17T07:18:33.713Z,26.64
2022-08-17T07:19:24.518Z,26.73
2022-08-17T07:20:15.627Z,26.77
2022-08-17T07:21:12.956Z,26.83
2022-08-17T07:22:28.160Z,26.84
2022-08-17T07:23:50.494Z,26.95
2022-08-17T07:24:53.179Z,27.02
2022-08-17T07:25:40.335Z,27.06
2022-08-17T07:26:27.854Z,27.09
2022-08-17T07:27:43.136Z,27.08
2022-08-17T07:28:30.571Z,27.06
2022-08-17T07:29:19.835Z,26.91
2022-08-17T07:30:19.580Z,26.89
2022-08-17T07:31:07.236Z,26.92
2022-08-17T07:31:54.543Z,26.93
2022-08-17T07:32:46.839Z,26.96
2022-08-17T07:33:34.814Z,26.99
2022-08-17T07:34:21.737Z,27.03
2022-08-17T07:35:16.399Z,27.07
2022-08-17T07:36:03.522Z,27.16
2022-08-17T07:37:04.341Z,27.21
2022-08-17T07:38:07.357Z,27.23
2022-08-17T07:39:12.860Z,27.22
2022-08-17T07:40:16.264Z,27.23
2022-08-17T07:41:07.476Z,27.26
2022-08-17T07:42:02.397Z,27.23
2022-08-17T07:43:01.469Z,27.25
2022-08-17T07:43:53.058Z,27.26
2022-08-17T07:44:53.006Z,27.27
2022-08-17T07:46:10.307Z,27.20
2022-08-17T07:47:15.868Z,27.17
2022-08-17T07:48:21.001Z,27.10
2022-08-17T07:49:10.588Z,27.15
2022-08-17T07:49:57.526Z,27.18
2022-08-17T07:50:49.382Z,27.27
2022-08-17T07:51:53.970Z,27.34
2022-08-17T07:52:50.552Z,27.36
2022-08-17T07:53:39.169Z,27.38
2022-08-17T07:54:35.993Z,27.43
2022-08-17T07:55:31.729Z,27.44
2022-08-17T07:56:38.028Z,27.47
2022-08-17T07:57:32.590Z,27.40
2022-08-17T07:58:23.570Z,27.37
2022-08-17T07:59:18.282Z,27.40
2022-08-17T08:00:19.586Z,27.50
2022-08-17T08:01:18.557Z,27.41
2022-08-17T08:02:16.244Z,27.44
2022-08-17T08:03:14.874Z,27.48
2022-08-17T08:04:03.636Z,27.52
2022-08-17T08:05:06.696Z,27.55
2022-08-17T08:06:03.151Z,27.58
2022-08-17T08:06:55.154Z,27.53
2022-08-17T08:07:57.075Z,27.53
2022-08-17T08:08:49.078Z,27.57
2022-08-17T08:09:44.783Z,27.61
2022-08-17T08:10:38.781Z,27.64
2022-08-17T08:11:34.373Z,27.70
2022-08-17T08:12:37.368Z,27.77
2022-08-17T08:13:28.932Z,27.79
2022-08-17T08:14:34.173Z,27.75
2022-08-17T08:15:25.798Z,27.87
2022-08-17T08:16:21.505Z,27.86
2022-08-17T08:17:09.245Z,27.93
2022-08-17T08:17:59.502Z,27.95
2022-08-17T08:18:55.770Z,27.79
2022-08-17T08:19:43.508Z,27.84
2022-08-17T08:20:52.595Z,27.90
2022-08-17T08:21:52.354Z,27.96
2022-08-17T08:23:02.669Z,27.97
2022-08-17T08:23:58.839Z,28.03
2022-08-17T08:25:14.517Z,28.08
2022-08-17T08:26:32.158Z,28.16
2022-08-17T08:27:22.304Z,28.18
2022-08-17T08:28:20.748Z,28.20
2022-08-17T08:29:36.577Z,28.23
2022-08-17T08:30:23.677Z,28.17
2022-08-17T08:31:30.751Z,28.21
2022-08-17T08:32:32.376Z,28.19
2022-08-17T08:33:29.077Z,28.19
2022-08-17T08:34:44.539Z,28.19
2022-08-17T08:35:53.746Z,28.18
2022-08-17T08:37:15.992Z,28.29
2022-08-17T08:38:24.138Z,28.35
2022-08-17T08:39:24.817Z,28.44
2022-08-17T08:40:17.366Z,28.49
2022-08-17T08:41:26.473Z,28.55
2022-08-17T08:42:46.002Z,28.58
2022-08-17T08:44:03.991Z,28.64
2022-08-17T08:45:16.268Z,28.68
2022-08-17T08:46:35.672Z,28.73
2022-08-17T08:47:45.533Z,28.77
2022-08-17T08:48:56.550Z,28.65
2022-08-17T08:50:06.958Z,28.57
2022-08-17T08:51:14.479Z,28.65
2022-08-17T08:52:03.716Z,28.70
2022-08-17T08:53:02.376Z,28.78
2022-08-17T08:54:02.551Z,28.81
2022-08-17T08:55:05.506Z,28.81
2022-08-17T08:55:56.465Z,28.88
2022-08-17T08:57:21.530Z,29.00
2022-08-17T08:58:06.462Z,28.98
2022-08-17T08:59:12.087Z,29.02
2022-08-17T09:00:05.050Z,29.10
2022-08-17T09:00:56.046Z,29.16
2022-08-17T09:02:07.630Z,29.03
2022-08-17T09:03:00.388Z,29.04
2022-08-17T09:04:27.670Z,29.08
2022-08-17T09:05:33.314Z,29.17
2022-08-17T09:06:39.910Z,29.26
2022-08-17T09:07:34.925Z,29.39
2022-08-17T09:08:38.883Z,29.39
2022-08-17T09:09:31.570Z,29.25
2022-08-17T09:10:44.568Z,29.23
2022-08-17T09:12:08.190Z,29.23
2022-08-17T09:12:57.970Z,29.27
2022-08-17T09:14:06.349Z,29.34
2022-08-17T09:15:14.159Z,29.19
2022-08-17T09:16:33.370Z,29.24
2022-08-17T09:17:37.237Z,29.28
2022-08-17T09:19:03.606Z,29.34
2022-08-17T09:19:39.664Z,29.39
2022-08-17T09:20:55.520Z,29.54
2022-08-17T09:21:55.630Z,29.62
2022-08-17T09:22:45.919Z,29.62
2022-08-17T09:23:51.653Z,29.62
2022-08-17T09:24:50.231Z,29.67
2022-08-17T09:26:04.141Z,29.73
2022-08-17T09:26:57.358Z,29.85
2022-08-17T09:27:53.313Z,29.94
2022-08-17T09:28:42.839Z,30.01
2022-08-17T09:29:35.364Z,29.89
2022-08-17T09:30:23.721Z,29.80
2022-08-17T09:31:17.252Z,29.87
2022-08-17T09:32:16.874Z,29.97
2022-08-17T09:33:07.959Z,30.07
2022-08-17T09:33:58.859Z,30.24
2022-08-17T09:34:53.750Z,30.28
2022-08-17T09:35:51.685Z,30.33
2022-08-17T09:36:59.583Z,30.44
2022-08-17T09:38:08.357Z,30.52
2022-08-17T09:39:08.296Z,30.56
2022-08-17T09:40:04.775Z,30.58
2022-08-17T09:41:19.378Z,30.50
2022-08-17T09:42:23.013Z,30.49
2022-08-17T09:43:37.371Z,30.47
2022-08-17T09:44:31.472Z,30.56
2022-08-17T09:45:35.557Z,30.50
2022-08-17T09:46:26.037Z,30.44
2022-08-17T09:47:18.654Z,30.49
2022-08-17T09:48:18.343Z,30.53
2022-08-17T09:49:15.292Z,30.63
2022-08-17T09:50:08.794Z,30.70
2022-08-17T09:51:06.476Z,30.67
2022-08-17T09:52:00.915Z,30.68
2022-08-17T09:52:48.834Z,30.73
2022-08-17T09:53:37.435Z,30.74
2022-08-17T09:54:45.074Z,30.64
2022-08-17T09:55:50.588Z,30.55
2022-08-17T09:56:40.013Z,30.65
2022-08-17T09:57:32.587Z,30.70
2022-08-17T09:58:34.915Z,30.74
2022-08-17T09:59:47.928Z,30.79
2022-08-17T10:00:36.398Z,30.92
2022-08-17T10:01:47.841Z,31.01
2022-08-17T10:02:55.054Z,31.15
2022-08-17T10:04:06.960Z,31.11
2022-08-17T10:05:05.726Z,31.11
2022-08-17T10:06:11.568Z,31.14
2022-08-17T10:07:07.908Z,30.95
2022-08-17T10:08:02.678Z,30.97
2022-08-17T10:09:19.243Z,31.00
2022-08-17T10:10:14.990Z,31.04
2022-08-17T10:11:06.060Z,31.14
2022-08-17T10:12:55.315Z,31.23
2022-08-17T10:14:35.932Z,31.27
2022-08-17T10:15:22.795Z,31.38
2022-08-17T10:16:34.359Z,31.41
2022-08-17T10:17:41.241Z,31.43
2022-08-17T10:18:50.952Z,31.38
2022-08-17T10:19:56.464Z,31.36
2022-08-17T10:21:21.349Z,31.38
2022-08-17T10:22:39.054Z,31.31
2022-08-17T10:23:48.047Z,31.29
2022-08-17T10:25:20.693Z,31.29
2022-08-17T10:26:14.028Z,31.40
2022-08-17T10:27:02.434Z,31.33
2022-08-17T10:27:54.519Z,31.31
2022-08-17T10:28:54.201Z,31.29
2022-08-17T10:29:48.802Z,31.37
2022-08-17T10:30:46.407Z,31.40
2022-08-17T10:31:55.102Z,31.40
2022-08-17T10:32:48.033Z,31.38
2022-08-17T10:34:00.467Z,31.45
2022-08-17T10:35:04.478Z,31.47
2022-08-17T10:36:12.555Z,31.52
2022-08-17T10:37:20.924Z,31.50
2022-08-17T10:38:28.996Z,31.58
2022-08-17T10:39:24.830Z,31.59
2022-08-17T10:40:22.467Z,31.65
2022-08-17T10:41:40.523Z,31.67
2022-08-17T10:42:36.441Z,31.71
2022-08-17T10:44:36.691Z,31.70
2022-08-17T10:45:07.502Z,31.73
2022-08-17T10:46:10.643Z,31.71
2022-08-17T10:47:11.526Z,31.77
2022-08-17T10:48:05.661Z,31.84
2022-08-17T10:49:15.368Z,31.83
2022-08-17T10:50:40.491Z,31.81
2022-08-17T10:51:38.835Z,31.84
2022-08-17T10:52:28.507Z,31.89
2022-08-17T10:53:35.641Z,31.84
2022-08-17T10:54:25.010Z,31.84
2022-08-17T10:55:18.036Z,31.87
2022-08-17T10:56:14.724Z,31.90
2022-08-17T10:57:01.602Z,31.99
2022-08-17T10:57:50.386Z,31.99
2022-08-17T10:58:58.437Z,31.98
2022-08-17T10:59:47.396Z,32.01
2022-08-17T11:00:40.219Z,32.05
2022-08-17T11:01:34.073Z,32.08
2022-08-17T11:02:31.647Z,32.17
2022-08-17T11:03:24.924Z,32.04
2022-08-17T11:04:32.992Z,31.91
2022-08-17T11:05:33.744Z,31.77
2022-08-17T11:06:52.352Z,31.53
2022-08-17T11:07:58.755Z,31.73
2022-08-17T11:08:57.660Z,31.81
2022-08-17T11:10:14.610Z,31.89
2022-08-17T11:11:12.417Z,31.85
2022-08-17T11:12:25.802Z,31.93
2022-08-17T11:13:23.321Z,32.00
2022-08-17T11:14:40.142Z,32.07
2022-08-17T11:15:42.164Z,32.16
2022-08-17T11:16:45.797Z,32.10
2022-08-17T11:17:39.116Z,32.18
2022-08-17T11:19:07.229Z,32.16
2022-08-17T11:19:59.844Z,32.22
2022-08-17T11:21:03.804Z,32.23
2022-08-17T11:22:09.375Z,32.24
2022-08-17T11:23:16.013Z,32.32
2022-08-17T11:24:17.047Z,32.42
2022-08-17T11:25:19.234Z,32.22
2022-08-17T11:26:26.199Z,32.29
2022-08-17T11:27:22.464Z,32.22
2022-08-17T11:28:34.626Z,32.32
2022-08-17T11:29:25.796Z,32.42
2022-08-17T11:30:43.556Z,32.40
2022-08-17T11:31:59.537Z,32.41
2022-08-17T11:32:54.554Z,32.48
2022-08-17T11:33:41.884Z,32.39
2022-08-17T11:34:31.189Z,32.45
2022-08-17T11:35:20.827Z,32.48
2022-08-17T11:36:23.708Z,32.42
2022-08-17T11:37:55.612Z,32.30
2022-08-17T11:39:06.787Z,32.33
2022-08-17T11:40:04.952Z,32.39
2022-08-17T11:41:19.716Z,32.37
2022-08-17T11:42:49.351Z,32.45
2022-08-17T11:43:49.674Z,32.56
2022-08-17T11:44:46.226Z,32.69
2022-08-17T11:45:39.395Z,32.63
2022-08-17T11:47:07.213Z,32.53
2022-08-17T11:48:33.161Z,32.47
2022-08-17T11:50:05.401Z,32.42
2022-08-17T11:51:46.979Z,32.26
2022-08-17T11:52:40.724Z,32.31
2022-08-17T11:53:37.355Z,32.42
2022-08-17T11:54:33.382Z,32.50
2022-08-17T11:55:36.575Z,32.58
2022-08-17T11:56:49.910Z,32.60
2022-08-17T11:57:42.895Z,32.50
2022-08-17T11:58:29.617Z,32.54